»·PEaware :: BAW98 KLAX-KLAS

BAW98 :: KLAX-KLAS

FLIGHT INFORMATION

Flight Status: Arrived
Operator:
British Airways
More flights by this operator :: More flights under this callsign
Pilot: Skye D. (10623)
Aircraft: Unknown
(B77L)
More flights by this aircraft type
Origin: KLAX Los Angeles Intl
United States
Destination: KLAS McCarran Intl
United States
More flights between these airports :: More routes between these airports
Route: +ORCKA2 MISEN KEPEC6
File this flight plan on PilotEdge
Remarks:
Altitude:
(Current/Filed)
31,000ft
Speed:
(Current/Filed)
482kts
Departed: 17-Feb-18 07:11 PM
Arrived: 17-Feb-18 08:04 PM
Distance/Time
Traveled:
206nm/0:52
Distance/Time
To Go:
Arrived

Flight Plot

Page will automatically refresh every two minutes.

Flight plan parsing failed; only flown route is shown


Map Options




Map Legend


Flown Route
Filed Route
Departure Airport
Arrival Airport
Navaid (VOR, NDB)
Fix

Horizontal Profiles

Position Reports

Time Latitude Longitude Heading Altitude Ground
Speed
17-Feb-18 18:53 33.942620 -118.411036 82 142ft 0kts
17-Feb-18 18:54 33.942620 -118.411036 82 142ft 0kts
17-Feb-18 18:55 33.942620 -118.411036 82 142ft 0kts
17-Feb-18 18:56 33.942620 -118.411036 82 142ft 0kts
17-Feb-18 18:57 33.942620 -118.411036 82 142ft 0kts
17-Feb-18 18:58 33.942620 -118.411036 82 142ft 0kts
17-Feb-18 18:59 33.942620 -118.411036 82 142ft 0kts
17-Feb-18 19:00 33.942620 -118.411036 82 142ft 0kts
17-Feb-18 19:01 33.942620 -118.411036 82 142ft 0kts
17-Feb-18 19:02 33.942620 -118.411036 82 142ft 0kts
17-Feb-18 19:03 33.942620 -118.411036 82 142ft 0kts
17-Feb-18 19:04 33.942620 -118.411036 82 142ft 0kts
17-Feb-18 19:05 33.942620 -118.411036 82 142ft 0kts
17-Feb-18 19:06 33.942612 -118.411106 82 142ft 2kts
17-Feb-18 19:07 33.942544 -118.411723 82 142ft 1kts
17-Feb-18 19:08 33.942210 -118.412148 358 142ft 2kts
17-Feb-18 19:09 33.942137 -118.412141 353 142ft 0kts
17-Feb-18 19:10 33.942137 -118.412141 353 142ft 0kts
17-Feb-18 19:11 33.943206 -118.412287 353 142ft 16kts
17-Feb-18 19:12 33.946943 -118.412810 353 142ft 12kts
17-Feb-18 19:13 33.948247 -118.409925 83 142ft 13kts
17-Feb-18 19:14 33.948941 -118.403203 82 142ft 19kts
17-Feb-18 19:15 33.949203 -118.401071 68 142ft 0kts
17-Feb-18 19:16 33.949063 -118.401551 23 142ft 2kts
17-Feb-18 19:17 33.949951 -118.401887 306 142ft 10kts
17-Feb-18 19:18 33.947821 -118.424885 262 546ft 157kts
17-Feb-18 19:19 33.941159 -118.482990 261 3081ft 223kts
17-Feb-18 19:20 33.932994 -118.552151 261 3021ft 240kts
17-Feb-18 19:21 33.922940 -118.637034 260 5098ft 266kts
17-Feb-18 19:22 33.868612 -118.657839 127 8120ft 279kts
17-Feb-18 19:23 33.884354 -118.572504 62 10391ft 319kts
17-Feb-18 19:24 33.922867 -118.481514 63 12826ft 337kts
17-Feb-18 19:25 33.959885 -118.395452 58 15216ft 362kts
17-Feb-18 19:26 34.006587 -118.303245 58 17478ft 395kts
17-Feb-18 19:27 34.062077 -118.205127 56 20362ft 408kts
17-Feb-18 19:28 34.121293 -118.100356 56 23063ft 421kts
17-Feb-18 19:29 34.184800 -117.987624 56 25556ft 441kts
17-Feb-18 19:30 34.254549 -117.863312 56 28068ft 461kts
17-Feb-18 19:31 34.322113 -117.742462 55 30272ft 479kts
17-Feb-18 19:32 34.396846 -117.614075 54 31115ft 466kts
17-Feb-18 19:33 34.472919 -117.486342 54 31131ft 469kts
17-Feb-18 19:34 34.550362 -117.355794 54 31131ft 492kts
17-Feb-18 19:35 34.629755 -117.222477 55 31130ft 493kts
17-Feb-18 19:36 34.709840 -117.086518 54 31131ft 497kts
17-Feb-18 19:37 34.788971 -116.951629 54 31103ft 494kts
17-Feb-18 19:38 34.866916 -116.818354 54 30067ft 462kts
17-Feb-18 19:39 34.938139 -116.695126 55 28768ft 444kts
17-Feb-18 19:40 35.007822 -116.571627 54 26726ft 442kts
17-Feb-18 19:41 35.075816 -116.450763 54 24840ft 426kts
17-Feb-18 19:42 35.150546 -116.343421 45 24125ft 420kts
17-Feb-18 19:43 35.232108 -116.241575 45 24123ft 421kts
17-Feb-18 19:44 35.313204 -116.139444 45 24123ft 418kts
17-Feb-18 19:45 35.391827 -116.040295 45 23951ft 379kts
17-Feb-18 19:46 35.463783 -115.949212 45 21178ft 363kts
17-Feb-18 19:47 35.530074 -115.865241 46 17784ft 328kts
17-Feb-18 19:48 35.593080 -115.784990 45 14949ft 319kts
17-Feb-18 19:49 35.655136 -115.705849 45 13026ft 316kts
17-Feb-18 19:50 35.716090 -115.627977 45 13017ft 318kts
17-Feb-18 19:51 35.788527 -115.574061 359 13030ft 310kts
17-Feb-18 19:52 35.874430 -115.568887 0 13017ft 309kts
17-Feb-18 19:53 35.958958 -115.555243 28 13020ft 313kts
17-Feb-18 19:54 36.000602 -115.469996 67 12585ft 297kts
17-Feb-18 19:55 36.028526 -115.379751 80 11041ft 284kts
17-Feb-18 19:56 36.024372 -115.283453 95 9967ft 280kts
17-Feb-18 19:57 36.017812 -115.190030 95 8858ft 267kts
17-Feb-18 19:58 36.012040 -115.105629 94 8217ft 240kts
17-Feb-18 19:59 36.006991 -115.024387 94 8005ft 239kts
17-Feb-18 20:00 36.002097 -114.942887 93 7997ft 239kts
17-Feb-18 20:01 35.997202 -114.862366 93 7502ft 235kts
17-Feb-18 20:02 35.992108 -114.782605 92 5795ft 232kts
17-Feb-18 20:03 35.994477 -114.708333 40 4877ft 214kts
17-Feb-18 20:04 36.032666 -114.743195 291 5001ft 217kts
17-Feb-18 20:05 36.051549 -114.813878 294 4999ft 216kts
17-Feb-18 20:06 36.069678 -114.883637 278 4988ft 217kts
17-Feb-18 20:07 36.073027 -114.956197 272 4825ft 193kts
17-Feb-18 20:08 36.073517 -115.015223 272 3844ft 168kts
17-Feb-18 20:09 36.073633 -115.065874 272 3066ft 158kts
17-Feb-18 20:10 36.073752 -115.114956 270 2419ft 158kts
17-Feb-18 20:11 36.073743 -115.147458 278 2158ft 11kts
17-Feb-18 20:12 36.076131 -115.151945 335 2158ft 15kts
17-Feb-18 20:13 36.078210 -115.151702 100 2158ft 11kts
17-Feb-18 20:14 36.078407 -115.145684 94 2158ft 18kts
17-Feb-18 20:15 36.078848 -115.141639 6 2158ft 12kts
17-Feb-18 20:16 36.082932 -115.142066 39 2158ft 14kts
17-Feb-18 20:17 36.084594 -115.138081 13 2158ft 9kts
17-Feb-18 20:18 36.085333 -115.138031 2 2158ft 0kts
17-Feb-18 20:19 36.085333 -115.138031 2 2158ft 0kts

Navigation Log

Ident Type
Flight plan parsing failed, navigation log unavailable